Time;durP1;ratioP1;P1;durP2;ratioP2;P2;SDS_P1;SDS_P2;PMS_P1;PMS_P2;Temp;Humidity;BMP_temperature;BMP_pressure;BME280_temperature;BME280_humidity;BME280_pressure;Samples;Min_cycle;Max_cycle;Signal;HPM_P1;HPM_P2
2021/03/24 00:01:06;;;;;;;21.67;16.67;;;;;;;;;;4958546;29;20232;-93
2021/03/24 00:03:32;;;;;;;22.65;16.33;;;;;;;;;;4961265;29;20209;-92
2021/03/24 00:05:58;;;;;;;21.83;15.98;;;;;;;;;;4957368;29;20205;-92
2021/03/24 00:08:25;;;;;;;21.33;15.20;;;;;;;;;;4952883;29;20668;-92
2021/03/24 00:10:51;;;;;;;23.90;16.88;;;;;;;;;;4955749;29;20451;-92
2021/03/24 00:13:17;;;;;;;22.92;17.05;;;;;;;;;;4958403;29;20212;-93
2021/03/24 00:15:43;;;;;;;21.17;16.13;;;;;;;;;;4958515;29;20224;-91
2021/03/24 00:18:09;;;;;;;25.73;18.43;;;;;;;;;;4956498;29;20458;-92
2021/03/24 00:20:37;;;;;;;22.10;16.13;;;;;;;;;;4953018;29;20492;-91
2021/03/24 00:23:03;;;;;;;24.55;17.05;;;;;;;;;;4956503;29;20707;-93
2021/03/24 00:25:30;;;;;;;26.40;17.13;;;;;;;;;;4953867;29;20242;-92
2021/03/24 00:27:56;;;;;;;25.23;17.75;;;;;;;;;;4961798;29;20211;-92
2021/03/24 00:30:23;;;;;;;24.35;18.15;;;;;;;;;;4954444;29;20210;-94
2021/03/24 00:32:49;;;;;;;20.10;15.63;;;;;;;;;;4956647;29;20208;-92
2021/03/24 00:35:15;;;;;;;27.17;18.70;;;;;;;;;;4952148;29;20220;-92
2021/03/24 00:37:41;;;;;;;23.77;17.57;;;;;;;;;;4956687;29;20467;-92
2021/03/24 00:40:10;;;;;;;28.25;17.75;;;;;;;;;;4960531;29;20495;-92
2021/03/24 00:42:37;;;;;;;23.23;16.45;;;;;;;;;;4956250;29;20268;-92
2021/03/24 00:45:04;;;;;;;21.77;14.73;;;;;;;;;;4952099;29;20216;-92
2021/03/24 00:47:30;;;;;;;19.15;15.00;;;;;;;;;;4955801;28;20209;-92
2021/03/24 00:49:56;;;;;;;20.33;13.63;;;;;;;;;;4957471;29;20211;-92
2021/03/24 00:52:22;;;;;;;14.87;11.93;;;;;;;;;;4957024;29;20465;-92
2021/03/24 00:54:48;;;;;;;19.50;13.43;;;;;;;;;;4953691;29;20473;-92
2021/03/24 00:57:14;;;;;;;18.37;13.87;;;;;;;;;;4957138;29;20512;-91
2021/03/24 00:59:41;;;;;;;24.27;15.70;;;;;;;;;;4954449;29;20466;-92
2021/03/24 01:02:07;;;;;;;19.60;14.77;;;;;;;;;;4958333;28;20499;-92
2021/03/24 01:04:33;;;;;;;19.50;14.65;;;;;;;;;;4956004;29;20212;-92
2021/03/24 01:06:59;;;;;;;21.70;14.67;;;;;;;;;;4951712;29;20216;-92
2021/03/24 01:09:25;;;;;;;22.27;14.23;;;;;;;;;;4954801;29;20465;-91
2021/03/24 01:11:51;;;;;;;22.93;15.37;;;;;;;;;;4951559;29;20512;-91
2021/03/24 01:14:17;;;;;;;19.97;15.13;;;;;;;;;;4957798;29;20448;-91
2021/03/24 01:16:43;;;;;;;23.30;14.87;;;;;;;;;;4956362;29;20463;-91
2021/03/24 01:19:09;;;;;;;21.48;15.43;;;;;;;;;;4955839;29;20495;-91
2021/03/24 01:21:35;;;;;;;23.20;16.23;;;;;;;;;;4944690;29;20239;-91
2021/03/24 01:24:01;;;;;;;23.25;16.17;;;;;;;;;;4956106;29;20542;-92
2021/03/24 01:26:28;;;;;;;21.23;16.55;;;;;;;;;;4957358;29;20200;-92
2021/03/24 01:28:58;;;;;;;26.08;16.00;;;;;;;;;;4955348;29;20219;-92
2021/03/24 01:31:24;;;;;;;20.70;15.98;;;;;;;;;;4952129;29;20216;-92
2021/03/24 01:33:51;;;;;;;20.70;15.30;;;;;;;;;;4961049;29;20269;-93
2021/03/24 01:36:17;;;;;;;19.63;14.88;;;;;;;;;;4954227;29;20211;-93
2021/03/24 01:38:43;;;;;;;20.93;15.93;;;;;;;;;;4956179;29;20194;-91
2021/03/24 01:41:09;;;;;;;21.40;15.50;;;;;;;;;;4946983;29;20560;-92
2021/03/24 01:43:37;;;;;;;17.95;13.80;;;;;;;;;;4951526;29;20461;-92
2021/03/24 01:46:18;;;;;;;20.45;14.57;;;;;;;;;;4955109;29;20208;-92
2021/03/24 01:48:45;;;;;;;24.38;16.02;;;;;;;;;;4954059;29;20207;-92
2021/03/24 01:51:13;;;;;;;22.15;15.98;;;;;;;;;;4957021;29;20207;-92
2021/03/24 01:53:39;;;;;;;20.17;15.35;;;;;;;;;;4950979;29;20213;-92
2021/03/24 01:56:06;;;;;;;23.88;16.08;;;;;;;;;;4955101;29;20215;-91
2021/03/24 01:58:32;;;;;;;24.75;17.23;;;;;;;;;;4947364;29;20215;-92
2021/03/24 02:00:58;;;;;;;24.52;16.85;;;;;;;;;;4955590;29;20227;-91
2021/03/24 02:03:25;;;;;;;19.30;14.82;;;;;;;;;;4952034;29;20214;-91
2021/03/24 02:05:51;;;;;;;23.98;17.85;;;;;;;;;;4953853;29;20204;-92
2021/03/24 02:08:20;;;;;;;20.95;15.90;;;;;;;;;;4960184;29;20216;-92
2021/03/24 02:10:48;;;;;;;22.40;17.00;;;;;;;;;;4962667;29;20214;-91
2021/03/24 02:13:16;;;;;;;28.70;16.73;;;;;;;;;;4954448;29;20213;-93
2021/03/24 02:15:47;;;;;;;23.83;16.60;;;;;;;;;;4956621;29;20205;-92
2021/03/24 02:18:14;;;;;;;26.27;16.60;;;;;;;;;;4959660;29;20210;-92
2021/03/24 02:20:44;;;;;;;23.90;17.42;;;;;;;;;;4961501;29;20228;-92
2021/03/24 02:23:14;;;;;;;21.60;16.80;;;;;;;;;;4952859;29;20222;-93
2021/03/24 02:25:43;;;;;;;24.58;17.92;;;;;;;;;;4953892;29;20212;-93
2021/03/24 02:28:11;;;;;;;25.27;18.52;;;;;;;;;;4952112;29;20203;-94
2021/03/24 02:30:38;;;;;;;25.33;17.42;;;;;;;;;;4954810;29;20206;-93
2021/03/24 02:33:06;;;;;;;23.10;17.35;;;;;;;;;;4955105;29;20648;-94
2021/03/24 02:35:34;;;;;;;23.70;17.55;;;;;;;;;;4951708;29;20214;-93
2021/03/24 02:38:02;;;;;;;24.35;17.88;;;;;;;;;;4946499;29;20207;-94
2021/03/24 02:40:29;;;;;;;29.02;20.02;;;;;;;;;;4955582;29;20228;-94
2021/03/24 02:42:57;;;;;;;25.38;19.30;;;;;;;;;;4952360;29;20211;-93
2021/03/24 02:45:25;;;;;;;28.65;18.27;;;;;;;;;;4956089;29;20232;-95
2021/03/24 02:47:51;;;;;;;30.20;19.55;;;;;;;;;;4947211;29;20213;-95
2021/03/24 02:50:19;;;;;;;25.65;18.83;;;;;;;;;;4945272;29;20224;-96
2021/03/24 02:52:45;;;;;;;28.52;20.45;;;;;;;;;;4946005;29;20204;-96
2021/03/24 02:55:12;;;;;;;29.95;21.55;;;;;;;;;;4949088;28;20220;-96
2021/03/24 02:57:38;;;;;;;28.23;20.02;;;;;;;;;;4954067;29;20212;-95
2021/03/24 03:00:05;;;;;;;26.13;20.08;;;;;;;;;;4951863;29;20686;-96
2021/03/24 03:02:34;;;;;;;32.83;21.60;;;;;;;;;;4954139;29;20217;-96
2021/03/24 03:05:02;;;;;;;28.95;20.85;;;;;;;;;;4954398;29;20215;-95
2021/03/24 03:07:31;;;;;;;32.60;22.27;;;;;;;;;;4945468;29;20207;-95
2021/03/24 03:09:59;;;;;;;30.30;21.88;;;;;;;;;;4951457;28;20212;-94
2021/03/24 03:12:30;;;;;;;32.75;22.52;;;;;;;;;;4953145;29;20214;-93
2021/03/24 03:14:58;;;;;;;30.17;22.50;;;;;;;;;;4953999;29;20215;-92
2021/03/24 03:17:27;;;;;;;32.65;23.77;;;;;;;;;;4953830;29;20216;-92
2021/03/24 03:19:58;;;;;;;31.63;23.27;;;;;;;;;;4953825;29;20263;-92
2021/03/24 03:22:26;;;;;;;31.15;22.15;;;;;;;;;;4950669;29;20235;-92
2021/03/24 03:24:55;;;;;;;31.35;22.90;;;;;;;;;;4954184;29;20210;-91
2021/03/24 03:27:22;;;;;;;31.60;22.90;;;;;;;;;;4953685;29;20693;-92
2021/03/24 03:29:49;;;;;;;32.50;22.67;;;;;;;;;;4953999;29;20212;-92
2021/03/24 03:32:17;;;;;;;33.33;23.00;;;;;;;;;;4951192;29;20215;-91
2021/03/24 03:34:46;;;;;;;31.48;21.98;;;;;;;;;;4954779;29;20205;-92
2021/03/24 03:37:13;;;;;;;31.65;22.13;;;;;;;;;;4956812;29;20209;-92
2021/03/24 03:39:40;;;;;;;32.92;22.05;;;;;;;;;;4953141;29;20205;-92
2021/03/24 03:42:07;;;;;;;36.97;21.77;;;;;;;;;;4950091;29;20705;-91
2021/03/24 03:44:34;;;;;;;34.58;23.20;;;;;;;;;;4953035;29;20294;-90
2021/03/24 03:47:02;;;;;;;37.75;22.40;;;;;;;;;;4956435;29;20217;-91
2021/03/24 03:49:29;;;;;;;34.53;22.00;;;;;;;;;;4951579;29;20208;-91
2021/03/24 03:52:01;;;;;;;38.28;22.58;;;;;;;;;;4949237;29;20218;-92
2021/03/24 03:54:32;;;;;;;33.90;22.23;;;;;;;;;;4953672;29;20209;-92
2021/03/24 03:57:01;;;;;;;29.52;19.75;;;;;;;;;;4954588;29;20205;-92
2021/03/24 03:59:31;;;;;;;31.83;20.70;;;;;;;;;;4953262;29;20238;-91
2021/03/24 04:02:01;;;;;;;27.23;19.45;;;;;;;;;;4942756;29;20231;-92
2021/03/24 04:04:31;;;;;;;24.85;17.73;;;;;;;;;;4953514;29;20258;-92
2021/03/24 04:06:59;;;;;;;24.77;16.95;;;;;;;;;;4950973;29;20204;-91
2021/03/24 04:09:25;;;;;;;22.58;15.57;;;;;;;;;;4950285;29;20203;-92
2021/03/24 04:11:54;;;;;;;25.23;16.95;;;;;;;;;;4952922;29;20262;-92
2021/03/24 04:14:22;;;;;;;25.73;18.60;;;;;;;;;;4951621;29;20229;-90
2021/03/24 04:16:50;;;;;;;30.48;19.70;;;;;;;;;;4954533;29;20208;-91
2021/03/24 04:19:17;;;;;;;26.45;18.20;;;;;;;;;;4951103;29;20245;-92
2021/03/24 04:21:45;;;;;;;27.65;18.67;;;;;;;;;;4957500;28;20231;-91
2021/03/24 04:24:14;;;;;;;26.55;18.20;;;;;;;;;;4952571;29;20208;-91
2021/03/24 04:26:43;;;;;;;26.13;18.17;;;;;;;;;;4955488;29;20209;-91
2021/03/24 04:29:11;;;;;;;24.85;16.42;;;;;;;;;;4946499;29;20216;-92
2021/03/24 04:31:39;;;;;;;19.85;15.45;;;;;;;;;;4956159;29;20210;-91
2021/03/24 04:34:05;;;;;;;24.42;17.02;;;;;;;;;;4951216;29;20215;-91
2021/03/24 04:36:34;;;;;;;25.80;18.10;;;;;;;;;;4957007;29;20205;-91
2021/03/24 04:39:04;;;;;;;24.92;16.50;;;;;;;;;;4960819;29;20463;-91
2021/03/24 04:41:31;;;;;;;23.50;15.88;;;;;;;;;;4962185;29;20233;-92
2021/03/24 04:43:58;;;;;;;21.85;15.50;;;;;;;;;;4954326;28;20215;-91
2021/03/24 04:46:29;;;;;;;22.20;15.55;;;;;;;;;;4955692;29;20209;-92
2021/03/24 04:48:56;;;;;;;23.95;17.88;;;;;;;;;;4955199;29;20695;-92
2021/03/24 04:51:23;;;;;;;23.58;16.90;;;;;;;;;;4956253;29;20208;-91
2021/03/24 04:53:52;;;;;;;28.60;19.35;;;;;;;;;;4953471;29;20238;-92
2021/03/24 04:56:19;;;;;;;28.25;19.73;;;;;;;;;;4947735;29;20271;-93
2021/03/24 04:58:46;;;;;;;28.58;19.70;;;;;;;;;;4954844;29;20229;-92
2021/03/24 05:01:14;;;;;;;26.30;17.85;;;;;;;;;;4952193;29;20960;-92
2021/03/24 05:03:42;;;;;;;25.27;17.65;;;;;;;;;;4957347;29;20559;-91
2021/03/24 05:06:12;;;;;;;23.48;17.15;;;;;;;;;;4954851;29;20222;-91
2021/03/24 05:08:39;;;;;;;25.40;18.63;;;;;;;;;;4955764;29;20212;-91
2021/03/24 05:11:09;;;;;;;26.77;19.48;;;;;;;;;;4949136;29;20222;-91
2021/03/24 05:13:39;;;;;;;25.88;19.55;;;;;;;;;;4956772;29;20199;-91
2021/03/24 05:16:06;;;;;;;31.40;20.38;;;;;;;;;;4956122;29;20306;-92
2021/03/24 05:18:33;;;;;;;29.90;19.92;;;;;;;;;;4954728;29;20259;-91
2021/03/24 05:21:06;;;;;;;27.05;19.90;;;;;;;;;;4951629;29;20301;-92
2021/03/24 05:23:32;;;;;;;30.58;21.55;;;;;;;;;;4947349;29;20373;-92
2021/03/24 05:26:01;;;;;;;28.88;20.95;;;;;;;;;;4952830;29;20217;-91
2021/03/24 05:28:29;;;;;;;35.30;23.15;;;;;;;;;;4955718;29;20206;-92
2021/03/24 05:30:59;;;;;;;34.67;25.17;;;;;;;;;;4958051;29;20211;-91
2021/03/24 05:33:27;;;;;;;34.63;24.85;;;;;;;;;;4954347;28;20211;-92
2021/03/24 05:35:59;;;;;;;35.53;25.67;;;;;;;;;;4950976;29;20694;-91
2021/03/24 05:38:30;;;;;;;37.40;26.73;;;;;;;;;;4954659;29;20213;-91
2021/03/24 05:40:58;;;;;;;35.17;25.80;;;;;;;;;;4955477;29;20235;-91
2021/03/24 05:43:31;;;;;;;36.17;25.48;;;;;;;;;;4956949;29;20579;-92
2021/03/24 05:46:06;;;;;;;38.65;26.65;;;;;;;;;;4953075;29;20219;-92
2021/03/24 05:48:43;;;;;;;36.97;26.30;;;;;;;;;;4947614;29;20215;-92
2021/03/24 05:51:16;;;;;;;39.13;28.92;;;;;;;;;;4954274;29;20205;-92
2021/03/24 05:53:55;;;;;;;44.92;29.45;;;;;;;;;;4956029;29;20247;-92
2021/03/24 05:56:23;;;;;;;39.15;29.85;;;;;;;;;;4960497;29;20306;-94
2021/03/24 05:58:55;;;;;;;40.13;30.60;;;;;;;;;;4955502;29;20212;-93
2021/03/24 06:01:26;;;;;;;38.85;30.60;;;;;;;;;;4953163;29;20277;-92
2021/03/24 06:04:10;;;;;;;41.65;30.42;;;;;;;;;;4955571;29;20232;-93
2021/03/24 06:07:09;;;;;;;39.13;31.48;;;;;;;;;;4935583;29;20222;-92
2021/03/24 06:09:43;;;;;;;39.25;31.65;;;;;;;;;;4957994;29;20233;-92
2021/03/24 06:12:23;;;;;;;42.20;33.60;;;;;;;;;;4956723;29;20207;-91
2021/03/24 06:15:01;;;;;;;37.22;27.30;;;;;;;;;;4919123;29;20216;-91
2021/03/24 06:17:39;;;;;;;42.97;29.55;;;;;;;;;;4951390;29;20206;-92
2021/03/24 06:20:11;;;;;;;37.20;29.77;;;;;;;;;;4955725;29;20227;-91
2021/03/24 06:22:44;;;;;;;46.53;30.73;;;;;;;;;;4952694;29;20870;-94
2021/03/24 06:25:23;;;;;;;38.85;26.70;;;;;;;;;;4955456;29;20334;-91
2021/03/24 06:27:54;;;;;;;39.42;27.48;;;;;;;;;;4958009;29;20211;-91
2021/03/24 06:30:30;;;;;;;40.30;27.65;;;;;;;;;;4949657;29;20204;-93
2021/03/24 06:33:14;;;;;;;34.83;26.40;;;;;;;;;;4951736;29;20230;-92
2021/03/24 06:35:46;;;;;;;33.60;24.05;;;;;;;;;;4915539;29;20210;-93
2021/03/24 06:38:30;;;;;;;33.35;22.00;;;;;;;;;;4953965;29;20287;-96
2021/03/24 06:41:06;;;;;;;27.77;20.90;;;;;;;;;;4933246;29;20239;-96
2021/03/24 06:43:45;;;;;;;36.05;22.98;;;;;;;;;;4958330;29;20212;-96
2021/03/24 06:46:29;;;;;;;26.55;18.15;;;;;;;;;;4970140;28;20210;-96
2021/03/24 06:49:11;;;;;;;22.17;17.10;;;;;;;;;;4948834;29;20215;-94
2021/03/24 06:52:08;;;;;;;23.40;16.70;;;;;;;;;;4959741;29;20220;-96
2021/03/24 06:54:52;;;;;;;24.50;17.90;;;;;;;;;;4960798;29;20210;-95
2021/03/24 06:57:43;;;;;;;25.95;18.85;;;;;;;;;;4963484;29;20674;-96
2021/03/24 07:00:25;;;;;;;25.33;16.65;;;;;;;;;;4958607;29;20208;-93
2021/03/24 07:03:01;;;;;;;23.15;15.18;;;;;;;;;;4949664;29;20237;-90
2021/03/24 07:05:51;;;;;;;20.75;14.45;;;;;;;;;;4954579;29;20216;-92
2021/03/24 07:08:24;;;;;;;17.55;14.18;;;;;;;;;;4941050;29;20216;-92
2021/03/24 07:11:07;;;;;;;13.52;10.25;;;;;;;;;;4951356;29;20217;-94
2021/03/24 07:13:51;;;;;;;15.85;9.45;;;;;;;;;;4941265;29;20216;-93
2021/03/24 07:16:21;;;;;;;12.02;9.43;;;;;;;;;;4951736;29;20215;-92
2021/03/24 07:19:03;;;;;;;8.80;7.90;;;;;;;;;;4955345;29;20232;-90
2021/03/24 07:21:40;;;;;;;7.93;7.13;;;;;;;;;;4957749;29;20265;-92
2021/03/24 07:24:30;;;;;;;12.70;5.63;;;;;;;;;;4960462;29;20215;-90
2021/03/24 07:27:03;;;;;;;6.22;5.18;;;;;;;;;;4953670;29;20477;-91
2021/03/24 07:29:48;;;;;;;6.90;5.75;;;;;;;;;;4949300;29;20211;-92
2021/03/24 07:32:19;;;;;;;9.23;5.78;;;;;;;;;;4954225;29;20207;-93
2021/03/24 07:35:03;;;;;;;9.27;7.10;;;;;;;;;;4965270;29;20223;-95
2021/03/24 07:37:46;;;;;;;7.95;6.20;;;;;;;;;;4943165;29;20234;-93
2021/03/24 07:40:31;;;;;;;9.77;7.00;;;;;;;;;;4953574;28;20202;-94
2021/03/24 07:43:09;;;;;;;7.25;6.45;;;;;;;;;;4949137;29;20200;-92
2021/03/24 07:45:56;;;;;;;8.80;5.30;;;;;;;;;;4951897;29;20595;-95
2021/03/24 07:48:42;;;;;;;8.50;6.13;;;;;;;;;;4957182;29;20458;-94
2021/03/24 07:51:12;;;;;;;11.68;7.13;;;;;;;;;;4947269;29;20223;-93
2021/03/24 07:53:41;;;;;;;8.05;5.60;;;;;;;;;;4955614;29;20224;-92
2021/03/24 07:56:13;;;;;;;6.45;5.60;;;;;;;;;;4947048;29;20227;-93
2021/03/24 07:59:00;;;;;;;8.23;6.67;;;;;;;;;;4961509;29;20211;-93
2021/03/24 08:01:32;;;;;;;10.35;5.80;;;;;;;;;;4966811;29;20493;-93
2021/03/24 08:04:04;;;;;;;4.90;4.40;;;;;;;;;;4954670;28;20296;-92
2021/03/24 08:06:38;;;;;;;5.97;4.40;;;;;;;;;;4959448;29;20461;-92
2021/03/24 08:09:13;;;;;;;5.30;4.47;;;;;;;;;;4944900;29;20241;-94
2021/03/24 08:11:42;;;;;;;7.53;3.80;;;;;;;;;;4963945;29;20457;-91
2021/03/24 08:14:18;;;;;;;8.98;5.82;;;;;;;;;;4970199;29;20207;-94
2021/03/24 08:17:04;;;;;;;5.53;4.90;;;;;;;;;;4953226;29;20227;-95
2021/03/24 08:19:55;;;;;;;4.60;4.07;;;;;;;;;;4947502;29;20244;-95
2021/03/24 08:22:50;;;;;;;4.10;3.72;;;;;;;;;;4942532;28;20231;-94
2021/03/24 08:25:37;;;;;;;3.00;2.70;;;;;;;;;;4962080;29;20243;-95
2021/03/24 08:28:06;;;;;;;4.80;3.47;;;;;;;;;;4967688;29;20478;-93
2021/03/24 08:30:50;;;;;;;4.07;3.40;;;;;;;;;;4946435;29;20269;-96
2021/03/24 08:33:33;;;;;;;4.72;3.35;;;;;;;;;;4946835;29;20467;-94
2021/03/24 08:36:17;;;;;;;3.00;2.70;;;;;;;;;;4956840;29;20197;-93
2021/03/24 08:39:04;;;;;;;3.70;3.15;;;;;;;;;;4957201;29;20469;-92
2021/03/24 08:42:01;;;;;;;4.70;3.40;;;;;;;;;;4968387;29;20263;-93
2021/03/24 08:44:36;;;;;;;5.32;3.25;;;;;;;;;;4953984;29;20199;-95
2021/03/24 08:47:09;;;;;;;3.92;3.20;;;;;;;;;;4952008;29;20208;-90
2021/03/24 08:49:37;;;;;;;2.72;2.53;;;;;;;;;;4945976;29;20221;-96
2021/03/24 08:52:10;;;;;;;4.53;3.50;;;;;;;;;;4952020;29;20219;-95
2021/03/24 08:54:57;;;;;;;2.80;2.20;;;;;;;;;;4944556;29;20224;-93
2021/03/24 08:57:40;;;;;;;2.90;2.47;;;;;;;;;;4946976;29;20207;-94
2021/03/24 09:00:27;;;;;;;4.35;2.95;;;;;;;;;;4950559;29;20216;-96
2021/03/24 09:03:04;;;;;;;3.55;2.63;;;;;;;;;;4953349;28;20237;-92
2021/03/24 09:05:31;;;;;;;2.63;2.42;;;;;;;;;;4950497;29;20238;-91
2021/03/24 09:08:09;;;;;;;4.38;2.65;;;;;;;;;;4949420;29;20273;-96
2021/03/24 09:10:50;;;;;;;2.38;1.85;;;;;;;;;;4947152;29;20222;-94
2021/03/24 09:13:28;;;;;;;3.50;2.30;;;;;;;;;;4938688;29;20207;-94
2021/03/24 09:16:21;;;;;;;2.33;2.08;;;;;;;;;;4950578;29;20213;-92
2021/03/24 09:18:50;;;;;;;2.05;1.70;;;;;;;;;;4945499;28;20721;-95
2021/03/24 09:21:19;;;;;;;2.73;1.80;;;;;;;;;;4950521;29;20242;-95
2021/03/24 09:23:57;;;;;;;1.58;1.40;;;;;;;;;;4952510;29;20516;-95
2021/03/24 09:26:39;;;;;;;2.67;2.47;;;;;;;;;;4950261;29;20215;-93
2021/03/24 09:29:18;;;;;;;2.38;1.50;;;;;;;;;;4956256;29;20486;-94
2021/03/24 09:31:56;;;;;;;2.43;2.20;;;;;;;;;;4943382;29;20683;-94
2021/03/24 09:34:32;;;;;;;2.33;2.00;;;;;;;;;;4943600;29;20993;-92
2021/03/24 09:37:00;;;;;;;2.42;2.20;;;;;;;;;;4946149;29;20255;-96
2021/03/24 09:39:29;;;;;;;1.90;1.80;;;;;;;;;;4941912;29;20199;-95
2021/03/24 09:41:59;;;;;;;2.15;1.95;;;;;;;;;;4957799;29;20854;-94
2021/03/24 09:44:42;;;;;;;2.73;2.37;;;;;;;;;;4967680;29;20219;-94
2021/03/24 09:47:18;;;;;;;1.73;1.63;;;;;;;;;;4960216;29;20452;-96
2021/03/24 09:49:46;;;;;;;2.80;2.10;;;;;;;;;;4956961;29;20455;-93
2021/03/24 09:52:23;;;;;;;2.87;2.03;;;;;;;;;;4947579;29;20522;-92
2021/03/24 09:55:04;;;;;;;2.37;1.93;;;;;;;;;;4949496;29;20483;-95
2021/03/24 09:57:38;;;;;;;1.63;1.53;;;;;;;;;;4955663;29;20541;-93
2021/03/24 10:00:06;;;;;;;1.97;1.40;;;;;;;;;;4968128;29;20445;-95
2021/03/24 10:02:36;;;;;;;2.10;2.00;;;;;;;;;;4952728;29;20494;-96
2021/03/24 10:05:10;;;;;;;1.60;1.50;;;;;;;;;;4940719;29;20203;-96
2021/03/24 10:07:41;;;;;;;3.00;2.50;;;;;;;;;;4962769;29;20478;-94
2021/03/24 10:10:22;;;;;;;4.40;2.00;;;;;;;;;;4962185;28;20491;-94
2021/03/24 10:12:54;;;;;;;3.80;2.30;;;;;;;;;;4963720;29;20463;-92
2021/03/24 10:15:28;;;;;;;1.40;1.30;;;;;;;;;;4957386;29;20503;-95
2021/03/24 10:18:00;;;;;;;5.50;2.47;;;;;;;;;;4954898;29;20475;-94
2021/03/24 10:20:29;;;;;;;1.88;1.67;;;;;;;;;;4956123;28;20491;-94
2021/03/24 10:23:01;;;;;;;1.73;1.63;;;;;;;;;;4952599;29;20240;-94
2021/03/24 10:25:37;;;;;;;2.23;2.03;;;;;;;;;;4935364;29;20446;-95
2021/03/24 10:28:05;;;;;;;1.90;1.70;;;;;;;;;;4956649;28;20454;-93
2021/03/24 10:30:34;;;;;;;3.00;2.10;;;;;;;;;;4953292;29;20448;-94
2021/03/24 10:33:05;;;;;;;2.23;2.03;;;;;;;;;;4946637;29;20467;-96
2021/03/24 10:35:35;;;;;;;3.83;2.60;;;;;;;;;;4955467;29;21113;-96
2021/03/24 10:38:19;;;;;;;5.00;2.00;;;;;;;;;;4955879;29;20463;-95
2021/03/24 10:40:48;;;;;;;2.20;1.93;;;;;;;;;;4956782;28;20455;-95
2021/03/24 10:43:21;;;;;;;4.90;2.40;;;;;;;;;;4965313;29;20447;-95
2021/03/24 10:46:03;;;;;;;2.67;2.07;;;;;;;;;;4955692;29;20459;-96
2021/03/24 10:48:32;;;;;;;3.20;2.90;;;;;;;;;;4948042;29;20466;-96
2021/03/24 10:51:04;;;;;;;2.03;1.93;;;;;;;;;;4949491;29;20462;-95
2021/03/24 10:53:33;;;;;;;2.50;1.90;;;;;;;;;;4959390;29;20462;-94
2021/03/24 10:56:07;;;;;;;2.43;2.23;;;;;;;;;;4965170;29;20452;-95
2021/03/24 10:58:44;;;;;;;2.10;1.83;;;;;;;;;;4938325;29;20469;-96
2021/03/24 11:01:15;;;;;;;2.17;1.97;;;;;;;;;;4952282;29;20518;-94
2021/03/24 11:04:03;;;;;;;2.50;2.30;;;;;;;;;;4953230;29;20466;-95
2021/03/24 11:06:37;;;;;;;2.23;2.13;;;;;;;;;;4957173;29;20447;-96
2021/03/24 11:09:07;;;;;;;2.30;1.50;;;;;;;;;;4961532;29;20885;-95
2021/03/24 11:11:40;;;;;;;3.07;2.20;;;;;;;;;;4941895;29;20514;-94
2021/03/24 11:14:08;;;;;;;2.30;2.10;;;;;;;;;;4951700;29;20454;-96
2021/03/24 11:16:40;;;;;;;2.37;2.03;;;;;;;;;;4960788;29;20484;-94
2021/03/24 11:19:10;;;;;;;3.47;2.43;;;;;;;;;;4962607;29;20489;-93
2021/03/24 11:21:41;;;;;;;2.40;2.20;;;;;;;;;;4960049;29;20580;-95
2021/03/24 11:24:14;;;;;;;2.70;2.33;;;;;;;;;;4959225;29;20471;-95
2021/03/24 11:26:45;;;;;;;1.90;1.80;;;;;;;;;;4957025;29;20478;-95
2021/03/24 11:29:13;;;;;;;2.17;2.00;;;;;;;;;;4954705;29;20449;-96
2021/03/24 11:31:49;;;;;;;6.40;3.47;;;;;;;;;;4956816;29;20462;-93
2021/03/24 11:34:34;;;;;;;4.37;3.70;;;;;;;;;;4954511;29;20447;-96
2021/03/24 11:37:05;;;;;;;2.40;2.20;;;;;;;;;;4960880;29;20458;-95
2021/03/24 11:39:33;;;;;;;6.47;2.20;;;;;;;;;;4962504;29;20537;-94
2021/03/24 11:42:11;;;;;;;3.20;2.40;;;;;;;;;;4948518;29;20483;-93
2021/03/24 11:44:38;;;;;;;2.73;2.53;;;;;;;;;;4943131;29;20494;-93
2021/03/24 11:47:08;;;;;;;2.10;1.97;;;;;;;;;;4947753;29;20451;-95
2021/03/24 11:49:44;;;;;;;4.67;2.50;;;;;;;;;;4953013;29;20450;-95
2021/03/24 11:52:21;;;;;;;3.20;2.50;;;;;;;;;;4953219;29;20457;-93
2021/03/24 11:54:57;;;;;;;2.37;2.17;;;;;;;;;;4960979;29;20455;-92
2021/03/24 11:57:46;;;;;;;3.23;2.70;;;;;;;;;;4947854;29;20447;-96
2021/03/24 12:00:21;;;;;;;1.77;1.67;;;;;;;;;;4953299;29;20480;-95
2021/03/24 12:02:56;;;;;;;2.73;2.33;;;;;;;;;;4946939;29;20490;-94
2021/03/24 12:05:30;;;;;;;2.50;1.97;;;;;;;;;;4949554;28;20466;-93
2021/03/24 12:08:13;;;;;;;2.37;2.20;;;;;;;;;;4943878;29;20454;-96
2021/03/24 12:10:41;;;;;;;6.30;2.77;;;;;;;;;;4937460;29;20454;-93
2021/03/24 12:13:15;;;;;;;2.40;2.10;;;;;;;;;;4950685;29;20474;-96
2021/03/24 12:15:42;;;;;;;4.53;2.93;;;;;;;;;;4953758;29;20450;-93
2021/03/24 12:18:10;;;;;;;4.87;3.10;;;;;;;;;;4953757;29;20463;-96
2021/03/24 12:20:51;;;;;;;5.87;3.00;;;;;;;;;;4955400;29;20451;-95
2021/03/24 12:23:18;;;;;;;2.77;2.57;;;;;;;;;;4957898;29;20515;-93
2021/03/24 12:25:46;;;;;;;2.50;2.30;;;;;;;;;;4956896;29;20455;-93
2021/03/24 12:28:12;;;;;;;3.10;2.63;;;;;;;;;;4954703;29;20467;-93
2021/03/24 12:30:44;;;;;;;2.70;2.10;;;;;;;;;;4954566;29;20463;-95
2021/03/24 12:33:19;;;;;;;2.53;2.33;;;;;;;;;;4941199;29;20467;-92
2021/03/24 12:35:47;;;;;;;2.80;2.50;;;;;;;;;;4962420;29;20449;-91
2021/03/24 12:38:15;;;;;;;3.13;2.40;;;;;;;;;;4955471;29;20470;-95
2021/03/24 12:40:51;;;;;;;2.10;1.90;;;;;;;;;;4945506;29;20458;-92
2021/03/24 12:43:21;;;;;;;2.37;2.17;;;;;;;;;;4947150;28;20499;-94
2021/03/24 12:45:48;;;;;;;1.93;1.83;;;;;;;;;;4957432;29;21553;-94
2021/03/24 12:48:14;;;;;;;3.00;2.30;;;;;;;;;;4952560;29;20458;-94
2021/03/24 12:50:43;;;;;;;5.37;2.80;;;;;;;;;;4958401;29;20459;-96
2021/03/24 12:53:26;;;;;;;3.43;2.50;;;;;;;;;;4964667;29;20458;-91
2021/03/24 12:55:55;;;;;;;2.40;2.20;;;;;;;;;;4944779;29;20483;-92
2021/03/24 12:58:46;;;;;;;2.80;1.93;;;;;;;;;;4956950;29;20459;-93
2021/03/24 13:01:29;;;;;;;2.70;2.10;;;;;;;;;;4958559;29;20462;-94
2021/03/24 13:04:07;;;;;;;4.30;2.10;;;;;;;;;;4953902;29;20458;-92
2021/03/24 13:06:40;;;;;;;2.40;1.87;;;;;;;;;;4968743;29;20469;-94
2021/03/24 13:09:14;;;;;;;1.80;1.70;;;;;;;;;;4950054;29;20514;-89
2021/03/24 13:11:44;;;;;;;2.00;1.90;;;;;;;;;;4957252;29;20443;-94
2021/03/24 13:14:31;;;;;;;2.40;2.20;;;;;;;;;;4957262;29;20503;-93
2021/03/24 13:17:04;;;;;;;2.30;1.83;;;;;;;;;;4928176;28;20455;-94
2021/03/24 13:19:35;;;;;;;1.90;1.73;;;;;;;;;;4949901;29;20550;-93
2021/03/24 13:22:05;;;;;;;3.08;2.20;;;;;;;;;;4932931;29;20239;-94
2021/03/24 13:24:38;;;;;;;2.53;2.33;;;;;;;;;;4941012;29;20208;-94
2021/03/24 13:27:15;;;;;;;2.60;2.40;;;;;;;;;;4948689;29;20444;-94
2021/03/24 13:29:46;;;;;;;2.30;2.10;;;;;;;;;;4928487;29;20465;-93
2021/03/24 13:32:16;;;;;;;4.50;2.30;;;;;;;;;;4937270;29;20212;-94
2021/03/24 13:34:54;;;;;;;2.47;2.00;;;;;;;;;;4941232;29;20467;-93
2021/03/24 13:37:22;;;;;;;2.90;2.37;;;;;;;;;;4937583;29;20524;-93
2021/03/24 13:42:33;;;;;;;3.30;2.07;;;;;;;;;;4930484;29;20228;-91
2021/03/24 13:45:02;;;;;;;3.17;2.83;;;;;;;;;;4938818;29;20538;-91
2021/03/24 13:47:30;;;;;;;4.43;2.67;;;;;;;;;;4932967;29;20464;-93
2021/03/24 13:49:59;;;;;;;2.27;2.07;;;;;;;;;;4946833;29;21022;-93
2021/03/24 13:52:45;;;;;;;3.37;2.63;;;;;;;;;;4939761;29;20461;-94
2021/03/24 13:55:29;;;;;;;7.50;3.40;;;;;;;;;;4937868;29;20891;-92
2021/03/24 13:58:04;;;;;;;2.73;2.53;;;;;;;;;;4949074;29;20478;-92
2021/03/24 14:00:33;;;;;;;5.10;3.07;;;;;;;;;;4935995;29;20467;-92
2021/03/24 14:03:17;;;;;;;5.47;2.70;;;;;;;;;;4937788;29;20495;-91
2021/03/24 14:05:46;;;;;;;4.13;2.33;;;;;;;;;;4940244;28;20506;-92
2021/03/24 14:08:23;;;;;;;8.82;2.97;;;;;;;;;;4936507;29;20460;-92
2021/03/24 14:10:53;;;;;;;5.20;2.93;;;;;;;;;;4933395;29;20218;-94
2021/03/24 14:13:24;;;;;;;5.67;3.13;;;;;;;;;;4943171;29;20467;-91
2021/03/24 14:16:05;;;;;;;6.57;3.53;;;;;;;;;;4935941;29;20494;-94
2021/03/24 14:18:34;;;;;;;9.60;3.80;;;;;;;;;;4947300;29;20482;-90
2021/03/24 14:21:07;;;;;;;3.43;2.53;;;;;;;;;;4951370;29;20456;-91
2021/03/24 14:23:37;;;;;;;4.20;2.60;;;;;;;;;;4949013;29;20470;-93
2021/03/24 14:26:09;;;;;;;3.33;2.60;;;;;;;;;;4955489;29;20527;-92
2021/03/24 14:28:42;;;;;;;4.67;2.80;;;;;;;;;;4948656;28;20471;-90
2021/03/24 14:31:19;;;;;;;5.80;3.50;;;;;;;;;;4941527;29;20463;-89
2021/03/24 14:33:49;;;;;;;2.57;2.37;;;;;;;;;;4952354;29;20446;-93
2021/03/24 14:36:20;;;;;;;2.87;2.67;;;;;;;;;;4945858;29;20463;-88
2021/03/24 14:38:59;;;;;;;4.07;2.30;;;;;;;;;;4954246;29;20450;-91
2021/03/24 14:41:28;;;;;;;6.20;3.35;;;;;;;;;;4945164;29;20566;-91
2021/03/24 14:44:18;;;;;;;5.00;2.67;;;;;;;;;;4951792;29;20206;-93
2021/03/24 14:46:56;;;;;;;3.40;2.20;;;;;;;;;;4929035;29;20463;-91
2021/03/24 14:49:38;;;;;;;2.45;1.92;;;;;;;;;;4951136;29;20460;-93
2021/03/24 14:52:05;;;;;;;2.65;2.45;;;;;;;;;;4955684;29;20202;-93
2021/03/24 14:54:31;;;;;;;4.57;2.75;;;;;;;;;;4948487;29;20199;-96
2021/03/24 14:57:03;;;;;;;2.75;2.50;;;;;;;;;;4955475;29;20204;-94
2021/03/24 14:59:31;;;;;;;3.17;2.40;;;;;;;;;;4955246;29;20227;-93
2021/03/24 15:02:16;;;;;;;2.97;2.35;;;;;;;;;;4969171;29;20233;-96
2021/03/24 15:04:43;;;;;;;3.50;2.60;;;;;;;;;;4963284;29;20211;-93